sensor_id;sensor_type;location;lat;lon;timestamp;pressure;altitude;pressure_sealevel;temperature;humidity
65800;BME280;52544;48.116;11.660;2023-12-04T00:00:06;95830.81;;;-7.67;100.00
65800;BME280;52544;48.116;11.660;2023-12-04T00:02:32;95835.03;;;-7.60;100.00
65800;BME280;52544;48.116;11.660;2023-12-04T00:04:58;95826.50;;;-7.67;100.00
65800;BME280;52544;48.116;11.660;2023-12-04T00:07:23;95832.69;;;-7.83;100.00
65800;BME280;52544;48.116;11.660;2023-12-04T00:09:48;95821.63;;;-7.90;100.00
65800;BME280;52544;48.116;11.660;2023-12-04T00:12:14;95815.63;;;-7.92;100.00
65800;BME280;52544;48.116;11.660;2023-12-04T00:14:39;95820.69;;;-7.84;100.00
65800;BME280;52544;48.116;11.660;2023-12-04T00:17:05;95819.78;;;-7.78;100.00
65800;BME280;52544;48.116;11.660;2023-12-04T00:19:30;95818.22;;;-7.95;100.00
65800;BME280;52544;48.116;11.660;2023-12-04T00:21:55;95817.44;;;-7.98;100.00
65800;BME280;52544;48.116;11.660;2023-12-04T00:24:21;95815.69;;;-7.96;100.00
65800;BME280;52544;48.116;11.660;2023-12-04T00:26:46;95812.22;;;-7.92;100.00
65800;BME280;52544;48.116;11.660;2023-12-04T00:29:11;95809.59;;;-7.88;100.00
65800;BME280;52544;48.116;11.660;2023-12-04T00:31:37;95805.34;;;-7.89;100.00
65800;BME280;52544;48.116;11.660;2023-12-04T00:34:02;95799.31;;;-7.85;100.00
65800;BME280;52544;48.116;11.660;2023-12-04T00:36:28;95801.84;;;-7.83;100.00
65800;BME280;52544;48.116;11.660;2023-12-04T00:38:53;95799.19;;;-7.75;100.00
65800;BME280;52544;48.116;11.660;2023-12-04T00:41:19;95788.91;;;-7.72;100.00
65800;BME280;52544;48.116;11.660;2023-12-04T00:43:44;95794.03;;;-7.72;100.00
65800;BME280;52544;48.116;11.660;2023-12-04T00:46:09;95794.06;;;-7.75;100.00
65800;BME280;52544;48.116;11.660;2023-12-04T00:48:36;95799.19;;;-7.75;100.00
65800;BME280;52544;48.116;11.660;2023-12-04T00:51:01;95798.31;;;-7.74;100.00
65800;BME280;52544;48.116;11.660;2023-12-04T00:53:27;95794.84;;;-7.70;100.00
65800;BME280;52544;48.116;11.660;2023-12-04T00:55:52;95800.03;;;-7.72;100.00
65800;BME280;52544;48.116;11.660;2023-12-04T00:58:18;95799.97;;;-7.69;100.00
65800;BME280;52544;48.116;11.660;2023-12-04T01:00:43;95798.22;;;-7.65;100.00
65800;BME280;52544;48.116;11.660;2023-12-04T01:03:08;95792.22;;;-7.66;100.00
65800;BME280;52544;48.116;11.660;2023-12-04T01:05:34;95792.22;;;-7.66;100.00
65800;BME280;52544;48.116;11.660;2023-12-04T01:07:59;95785.38;;;-7.65;100.00
65800;BME280;52544;48.116;11.660;2023-12-04T01:10:25;95783.78;;;-7.75;100.00
65800;BME280;52544;48.116;11.660;2023-12-04T01:12:50;95778.63;;;-7.75;100.00
65800;BME280;52544;48.116;11.660;2023-12-04T01:15:15;95783.84;;;-7.80;100.00
65800;BME280;52544;48.116;11.660;2023-12-04T01:17:41;95772.75;;;-7.85;100.00
65800;BME280;52544;48.116;11.660;2023-12-04T01:20:07;95761.53;;;-7.76;100.00
65800;BME280;52544;48.116;11.660;2023-12-04T01:22:32;95772.69;;;-7.79;100.00
65800;BME280;52544;48.116;11.660;2023-12-04T01:24:58;95773.56;;;-7.82;100.00
65800;BME280;52544;48.116;11.660;2023-12-04T01:27:23;95775.22;;;-7.77;100.00
65800;BME280;52544;48.116;11.660;2023-12-04T01:29:48;95777.06;;;-7.89;100.00
65800;BME280;52544;48.116;11.660;2023-12-04T01:32:14;95779.78;;;-8.04;100.00
65800;BME280;52544;48.116;11.660;2023-12-04T01:34:42;95773.72;;;-7.97;100.00
65800;BME280;52544;48.116;11.660;2023-12-04T01:37:08;95767.69;;;-7.90;100.00
65800;BME280;52544;48.116;11.660;2023-12-04T01:39:34;95763.38;;;-7.91;100.00
65800;BME280;52544;48.116;11.660;2023-12-04T01:41:59;95759.13;;;-7.95;100.00
65800;BME280;52544;48.116;11.660;2023-12-04T01:44:24;95760.91;;;-7.98;100.00
65800;BME280;52544;48.116;11.660;2023-12-04T01:46:50;95759.16;;;-7.96;100.00
65800;BME280;52544;48.116;11.660;2023-12-04T01:49:15;95760.03;;;-7.99;100.00
65800;BME280;52544;48.116;11.660;2023-12-04T01:51:42;95752.38;;;-8.02;100.00
65800;BME280;52544;48.116;11.660;2023-12-04T01:54:08;95754.09;;;-8.04;100.00
65800;BME280;52544;48.116;11.660;2023-12-04T01:56:34;95746.59;;;-8.19;100.00
65800;BME280;52544;48.116;11.660;2023-12-04T01:59:01;95743.16;;;-8.21;100.00
65800;BME280;52544;48.116;11.660;2023-12-04T02:01:28;95730.34;;;-8.24;100.00
65800;BME280;52544;48.116;11.660;2023-12-04T02:03:54;95727.84;;;-8.27;100.00
65800;BME280;52544;48.116;11.660;2023-12-04T02:06:21;95726.19;;;-8.35;100.00
65800;BME280;52544;48.116;11.660;2023-12-04T02:08:47;95721.06;;;-8.36;100.00
65800;BME280;52544;48.116;11.660;2023-12-04T02:11:13;95721.03;;;-8.32;100.00
65800;BME280;52544;48.116;11.660;2023-12-04T02:13:39;95710.75;;;-8.32;100.00
65800;BME280;52544;48.116;11.660;2023-12-04T02:16:05;95705.69;;;-8.38;100.00
65800;BME280;52544;48.116;11.660;2023-12-04T02:18:34;95698.81;;;-8.36;100.00
65800;BME280;52544;48.116;11.660;2023-12-04T02:21:00;95680.31;;;-8.65;100.00
65800;BME280;52544;48.116;11.660;2023-12-04T02:23:26;95680.34;;;-8.68;100.00
65800;BME280;52544;48.116;11.660;2023-12-04T02:25:54;95676.91;;;-8.66;100.00
65800;BME280;52544;48.116;11.660;2023-12-04T02:28:25;95670.03;;;-8.62;100.00
65800;BME280;52544;48.116;11.660;2023-12-04T02:30:52;95669.19;;;-8.64;100.00
65800;BME280;52544;48.116;11.660;2023-12-04T02:33:23;95671.69;;;-8.58;100.00
65800;BME280;52544;48.116;11.660;2023-12-04T02:35:50;95666.53;;;-8.55;100.00
65800;BME280;52544;48.116;11.660;2023-12-04T02:38:16;95670.81;;;-8.59;100.00
65800;BME280;52544;48.116;11.660;2023-12-04T02:40:42;95673.41;;;-8.59;100.00
65800;BME280;52544;48.116;11.660;2023-12-04T02:43:08;95676.84;;;-8.61;100.00
65800;BME280;52544;48.116;11.660;2023-12-04T02:45:33;95676.81;;;-8.58;100.00
65800;BME280;52544;48.116;11.660;2023-12-04T02:47:59;95666.69;;;-8.70;100.00
65800;BME280;52544;48.116;11.660;2023-12-04T02:50:24;95668.41;;;-8.72;100.00
65800;BME280;52544;48.116;11.660;2023-12-04T02:52:49;95674.38;;;-8.72;100.00
65800;BME280;52544;48.116;11.660;2023-12-04T02:55:15;95671.78;;;-8.69;100.00
65800;BME280;52544;48.116;11.660;2023-12-04T02:57:41;95670.94;;;-8.71;100.00
65800;BME280;52544;48.116;11.660;2023-12-04T03:00:07;95666.88;;;-8.90;100.00
65800;BME280;52544;48.116;11.660;2023-12-04T03:02:32;95670.28;;;-8.90;100.00
65800;BME280;52544;48.116;11.660;2023-12-04T03:04:58;95656.84;;;-9.19;100.00
65800;BME280;52544;48.116;11.660;2023-12-04T03:07:23;95654.25;;;-9.16;100.00
65800;BME280;52544;48.116;11.660;2023-12-04T03:09:49;95653.31;;;-9.06;100.00
65800;BME280;52544;48.116;11.660;2023-12-04T03:12:16;95642.31;;;-9.19;100.00
65800;BME280;52544;48.116;11.660;2023-12-04T03:14:41;95642.47;;;-9.37;100.00
65800;BME280;52544;48.116;11.660;2023-12-04T03:17:07;95631.31;;;-9.35;100.00
65800;BME280;52544;48.116;11.660;2023-12-04T03:19:32;95630.47;;;-9.34;100.00
65800;BME280;52544;48.116;11.660;2023-12-04T03:21:57;95622.81;;;-9.37;100.00
65800;BME280;52544;48.116;11.660;2023-12-04T03:24:23;95618.53;;;-9.36;100.00
65800;BME280;52544;48.116;11.660;2023-12-04T03:26:48;95621.00;;;-9.27;100.00
65800;BME280;52544;48.116;11.660;2023-12-04T03:29:13;95613.34;;;-9.28;100.00
65800;BME280;52544;48.116;11.660;2023-12-04T03:31:39;95614.25;;;-9.34;100.00
65800;BME280;52544;48.116;11.660;2023-12-04T03:34:04;95614.22;;;-9.29;100.00
65800;BME280;52544;48.116;11.660;2023-12-04T03:36:30;95614.16;;;-9.26;100.00
65800;BME280;52544;48.116;11.660;2023-12-04T03:38:55;95609.00;;;-9.20;100.00
65800;BME280;52544;48.116;11.660;2023-12-04T03:41:20;95605.56;;;-9.16;100.00
65800;BME280;52544;48.116;11.660;2023-12-04T03:43:47;95608.97;;;-9.17;100.00
65800;BME280;52544;48.116;11.660;2023-12-04T03:46:12;95611.50;;;-9.14;100.00
65800;BME280;52544;48.116;11.660;2023-12-04T03:48:38;95605.47;;;-9.10;100.00
65800;BME280;52544;48.116;11.660;2023-12-04T03:51:04;95595.22;;;-9.10;100.00
65800;BME280;52544;48.116;11.660;2023-12-04T03:53:30;95602.03;;;-9.09;100.00
65800;BME280;52544;48.116;11.660;2023-12-04T03:55:58;95603.78;;;-9.08;100.00
65800;BME280;52544;48.116;11.660;2023-12-04T03:58:23;95606.38;;;-9.13;100.00
65800;BME280;52544;48.116;11.660;2023-12-04T04:00:49;95604.66;;;-9.12;100.00
65800;BME280;52544;48.116;11.660;2023-12-04T04:03:14;95609.00;;;-9.22;100.00
65800;BME280;52544;48.116;11.660;2023-12-04T04:05:40;95597.09;;;-9.27;100.00
65800;BME280;52544;48.116;11.660;2023-12-04T04:08:05;95594.63;;;-9.40;100.00
65800;BME280;52544;48.116;11.660;2023-12-04T04:10:33;95591.19;;;-9.34;100.00
65800;BME280;52544;48.116;11.660;2023-12-04T04:12:58;95601.34;;;-9.25;100.00
65800;BME280;52544;48.116;11.660;2023-12-04T04:15:24;95594.56;;;-9.29;100.00
65800;BME280;52544;48.116;11.660;2023-12-04T04:17:49;95584.34;;;-9.37;100.00
65800;BME280;52544;48.116;11.660;2023-12-04T04:20:15;95578.34;;;-9.33;100.00
65800;BME280;52544;48.116;11.660;2023-12-04T04:22:40;95585.25;;;-9.41;100.00
65800;BME280;52544;48.116;11.660;2023-12-04T04:25:09;95576.84;;;-9.58;100.00
65800;BME280;52544;48.116;11.660;2023-12-04T04:27:35;95573.50;;;-9.66;100.00
65800;BME280;52544;48.116;11.660;2023-12-04T04:30:02;95569.19;;;-9.64;100.00
65800;BME280;52544;48.116;11.660;2023-12-04T04:32:27;95564.06;;;-9.60;100.00
65800;BME280;52544;48.116;11.660;2023-12-04T04:34:53;95568.31;;;-9.59;100.00
65800;BME280;52544;48.116;11.660;2023-12-04T04:37:19;95564.84;;;-9.53;100.00
65800;BME280;52544;48.116;11.660;2023-12-04T04:39:44;95569.13;;;-9.53;100.00
65800;BME280;52544;48.116;11.660;2023-12-04T04:42:10;95567.38;;;-9.51;100.00
65800;BME280;52544;48.116;11.660;2023-12-04T04:44:35;95566.50;;;-9.46;100.00
65800;BME280;52544;48.116;11.660;2023-12-04T04:47:01;95572.50;;;-9.47;100.00
65800;BME280;52544;48.116;11.660;2023-12-04T04:49:26;95576.75;;;-9.49;100.00
65800;BME280;52544;48.116;11.660;2023-12-04T04:51:51;95571.63;;;-9.46;100.00
65800;BME280;52544;48.116;11.660;2023-12-04T04:54:17;95563.13;;;-9.52;100.00
65800;BME280;52544;48.116;11.660;2023-12-04T04:56:42;95564.84;;;-9.56;100.00
65800;BME280;52544;48.116;11.660;2023-12-04T04:59:08;95564.84;;;-9.53;100.00
65800;BME280;52544;48.116;11.660;2023-12-04T05:01:33;95567.34;;;-9.45;100.00
65800;BME280;52544;48.116;11.660;2023-12-04T05:03:58;95558.91;;;-9.55;100.00
65800;BME280;52544;48.116;11.660;2023-12-04T05:06:25;95552.91;;;-9.57;100.00
65800;BME280;52544;48.116;11.660;2023-12-04T05:08:50;95553.75;;;-9.57;100.00
65800;BME280;52544;48.116;11.660;2023-12-04T05:11:17;95542.72;;;-9.63;100.00
65800;BME280;52544;48.116;11.660;2023-12-04T05:13:44;95536.75;;;-9.65;100.00
65800;BME280;52544;48.116;11.660;2023-12-04T05:16:10;95529.06;;;-9.62;100.00
65800;BME280;52544;48.116;11.660;2023-12-04T05:18:35;95526.44;;;-9.58;100.00
65800;BME280;52544;48.116;11.660;2023-12-04T05:21:01;95527.22;;;-9.49;100.00
65800;BME280;52544;48.116;11.660;2023-12-04T05:23:26;95522.97;;;-9.52;100.00
65800;BME280;52544;48.116;11.660;2023-12-04T05:25:52;95526.31;;;-9.44;100.00
65800;BME280;52544;48.116;11.660;2023-12-04T05:28:17;95519.44;;;-9.37;100.00
65800;BME280;52544;48.116;11.660;2023-12-04T05:30:43;95525.47;;;-9.43;100.00
65800;BME280;52544;48.116;11.660;2023-12-04T05:33:08;95519.56;;;-9.52;100.00
65800;BME280;52544;48.116;11.660;2023-12-04T05:35:34;95528.09;;;-9.50;100.00
65800;BME280;52544;48.116;11.660;2023-12-04T05:38:00;95516.91;;;-9.42;100.00
65800;BME280;52544;48.116;11.660;2023-12-04T05:40:25;95511.00;;;-9.51;100.00
65800;BME280;52544;48.116;11.660;2023-12-04T05:42:51;95512.72;;;-9.50;100.00
65800;BME280;52544;48.116;11.660;2023-12-04T05:45:16;95507.53;;;-9.44;100.00
65800;BME280;52544;48.116;11.660;2023-12-04T05:47:41;95504.88;;;-9.32;100.00
65800;BME280;52544;48.116;11.660;2023-12-04T05:50:07;95516.84;;;-9.33;100.00
65800;BME280;52544;48.116;11.660;2023-12-04T05:52:33;95512.50;;;-9.27;100.00
65800;BME280;52544;48.116;11.660;2023-12-04T05:54:58;95501.38;;;-9.26;100.00
65800;BME280;52544;48.116;11.660;2023-12-04T05:57:24;95508.28;;;-9.32;100.00
65800;BME280;52544;48.116;11.660;2023-12-04T05:59:49;95504.03;;;-9.36;100.00
65800;BME280;52544;48.116;11.660;2023-12-04T06:02:14;95513.47;;;-9.38;100.00
65800;BME280;52544;48.116;11.660;2023-12-04T06:04:40;95508.38;;;-9.44;100.00
65800;BME280;52544;48.116;11.660;2023-12-04T06:07:06;95510.16;;;-9.49;100.00
65800;BME280;52544;48.116;11.660;2023-12-04T06:09:32;95507.50;;;-9.41;100.00
65800;BME280;52544;48.116;11.660;2023-12-04T06:11:58;95497.22;;;-9.37;100.00
65800;BME280;52544;48.116;11.660;2023-12-04T06:14:23;95498.97;;;-9.40;100.00
65800;BME280;52544;48.116;11.660;2023-12-04T06:16:48;95494.72;;;-9.44;100.00
65800;BME280;52544;48.116;11.660;2023-12-04T06:19:14;95484.50;;;-9.46;100.00
65800;BME280;52544;48.116;11.660;2023-12-04T06:21:40;95486.25;;;-9.52;100.00
65800;BME280;52544;48.116;11.660;2023-12-04T06:24:06;95482.75;;;-9.44;100.00
65800;BME280;52544;48.116;11.660;2023-12-04T06:26:36;95487.88;;;-9.41;100.00
65800;BME280;52544;48.116;11.660;2023-12-04T06:29:01;95483.56;;;-9.37;100.00
65800;BME280;52544;48.116;11.660;2023-12-04T06:31:27;95479.22;;;-9.32;100.00
65800;BME280;52544;48.116;11.660;2023-12-04T06:33:53;95468.13;;;-9.33;100.00
65800;BME280;52544;48.116;11.660;2023-12-04T06:36:18;95475.81;;;-9.29;100.00
65800;BME280;52544;48.116;11.660;2023-12-04T06:38:46;95474.91;;;-9.27;100.00
65800;BME280;52544;48.116;11.660;2023-12-04T06:41:12;95472.28;;;-9.22;100.00
65800;BME280;52544;48.116;11.660;2023-12-04T06:43:38;95471.41;;;-9.20;100.00
65800;BME280;52544;48.116;11.660;2023-12-04T06:46:04;95458.53;;;-9.15;100.00
65800;BME280;52544;48.116;11.660;2023-12-04T06:48:31;95443.16;;;-9.15;100.00
65800;BME280;52544;48.116;11.660;2023-12-04T06:50:57;95442.28;;;-9.13;100.00
65800;BME280;52544;48.116;11.660;2023-12-04T06:53:23;95445.72;;;-9.15;100.00
65800;BME280;52544;48.116;11.660;2023-12-04T06:55:48;95443.13;;;-9.12;100.00
65800;BME280;52544;48.116;11.660;2023-12-04T06:58:14;95449.06;;;-9.10;100.00
65800;BME280;52544;48.116;11.660;2023-12-04T07:00:39;95454.16;;;-9.06;100.00
65800;BME280;52544;48.116;11.660;2023-12-04T07:03:04;95447.31;;;-9.03;100.00
65800;BME280;52544;48.116;11.660;2023-12-04T07:05:30;95449.78;;;-8.96;100.00
65800;BME280;52544;48.116;11.660;2023-12-04T07:07:55;95448.03;;;-8.94;100.00
65800;BME280;52544;48.116;11.660;2023-12-04T07:10:21;95442.94;;;-8.97;100.00
65800;BME280;52544;48.116;11.660;2023-12-04T07:12:46;95436.13;;;-8.98;100.00
65800;BME280;52544;48.116;11.660;2023-12-04T07:15:11;95439.47;;;-8.91;100.00
65800;BME280;52544;48.116;11.660;2023-12-04T07:17:38;95436.84;;;-8.87;100.00
65800;BME280;52544;48.116;11.660;2023-12-04T07:20:03;95435.09;;;-8.85;100.00
65800;BME280;52544;48.116;11.660;2023-12-04T07:22:32;95434.16;;;-8.77;100.00
65800;BME280;52544;48.116;11.660;2023-12-04T07:24:58;95434.09;;;-8.73;100.00
65800;BME280;52544;48.116;11.660;2023-12-04T07:27:23;95426.38;;;-8.70;100.00
65800;BME280;52544;48.116;11.660;2023-12-04T07:29:49;95420.28;;;-8.64;100.00
65800;BME280;52544;48.116;11.660;2023-12-04T07:32:14;95420.19;;;-8.58;100.00
65800;BME280;52544;48.116;11.660;2023-12-04T07:34:39;95416.72;;;-8.54;100.00
65800;BME280;52544;48.116;11.660;2023-12-04T07:37:05;95403.78;;;-8.45;100.00
65800;BME280;52544;48.116;11.660;2023-12-04T07:39:30;95397.63;;;-8.36;100.00
65800;BME280;52544;48.116;11.660;2023-12-04T07:41:56;95390.66;;;-8.30;100.00
65800;BME280;52544;48.116;11.660;2023-12-04T07:44:21;95393.97;;;-8.21;100.00
65800;BME280;52544;48.116;11.660;2023-12-04T07:46:46;95391.69;;;-8.38;100.00
65800;BME280;52544;48.116;11.660;2023-12-04T07:49:12;95392.59;;;-8.41;100.00
65800;BME280;52544;48.116;11.660;2023-12-04T07:51:37;95390.88;;;-8.40;100.00
65800;BME280;52544;48.116;11.660;2023-12-04T07:54:04;95399.41;;;-8.40;100.00
65800;BME280;52544;48.116;11.660;2023-12-04T07:56:29;95400.09;;;-8.30;100.00
65800;BME280;52544;48.116;11.660;2023-12-04T07:58:55;95387.97;;;-8.22;100.00
65800;BME280;52544;48.116;11.660;2023-12-04T08:01:21;95382.06;;;-8.28;100.00
65800;BME280;52544;48.116;11.660;2023-12-04T08:03:46;95369.78;;;-8.08;100.00
65800;BME280;52544;48.116;11.660;2023-12-04T08:06:12;95376.38;;;-7.95;100.00
65800;BME280;52544;48.116;11.660;2023-12-04T08:08:37;95393.47;;;-7.92;100.00
65800;BME280;52544;48.116;11.660;2023-12-04T08:11:03;95395.06;;;-7.84;100.00
65800;BME280;52544;48.116;11.660;2023-12-04T08:13:28;95391.50;;;-7.76;100.00
65800;BME280;52544;48.116;11.660;2023-12-04T08:15:54;95401.66;;;-7.70;100.00
65800;BME280;52544;48.116;11.660;2023-12-04T08:18:19;95410.94;;;-7.62;100.00
65800;BME280;52544;48.116;11.660;2023-12-04T08:20:45;95407.66;;;-7.68;100.00
65800;BME280;52544;48.116;11.660;2023-12-04T08:23:10;95403.22;;;-7.60;100.00
65800;BME280;52544;48.116;11.660;2023-12-04T08:25:35;95384.16;;;-7.50;100.00
65800;BME280;52544;48.116;11.660;2023-12-04T08:28:04;95382.94;;;-7.31;100.00
65800;BME280;52544;48.116;11.660;2023-12-04T08:30:29;95375.06;;;-7.21;100.00
65800;BME280;52544;48.116;11.660;2023-12-04T08:32:55;95373.09;;;-7.10;100.00
65800;BME280;52544;48.116;11.660;2023-12-04T08:35:20;95382.50;;;-7.08;100.00
65800;BME280;52544;48.116;11.660;2023-12-04T08:37:47;95367.34;;;-7.23;100.00
65800;BME280;52544;48.116;11.660;2023-12-04T08:40:12;95365.72;;;-7.27;100.00
65800;BME280;52544;48.116;11.660;2023-12-04T08:42:38;95372.50;;;-7.21;100.00
65800;BME280;52544;48.116;11.660;2023-12-04T08:45:04;95371.84;;;-7.33;100.00
65800;BME280;52544;48.116;11.660;2023-12-04T08:47:31;95375.22;;;-7.31;100.00
65800;BME280;52544;48.116;11.660;2023-12-04T08:49:56;95376.84;;;-7.26;100.00
65800;BME280;52544;48.116;11.660;2023-12-04T08:52:22;95378.25;;;-7.10;100.00
65800;BME280;52544;48.116;11.660;2023-12-04T08:54:47;95367.84;;;-7.04;100.00
65800;BME280;52544;48.116;11.660;2023-12-04T08:57:13;95374.47;;;-6.94;100.00
65800;BME280;52544;48.116;11.660;2023-12-04T08:59:38;95370.16;;;-6.92;100.00
65800;BME280;52544;48.116;11.660;2023-12-04T09:02:04;95371.03;;;-6.93;100.00
65800;BME280;52544;48.116;11.660;2023-12-04T09:04:30;95369.03;;;-6.78;100.00
65800;BME280;52544;48.116;11.660;2023-12-04T09:06:56;95371.44;;;-6.72;100.00
65800;BME280;52544;48.116;11.660;2023-12-04T09:09:22;95363.41;;;-6.57;100.00
65800;BME280;52544;48.116;11.660;2023-12-04T09:11:47;95360.44;;;-6.40;100.00
65800;BME280;52544;48.116;11.660;2023-12-04T09:14:13;95364.25;;;-6.19;100.00
65800;BME280;52544;48.116;11.660;2023-12-04T09:16:38;95359.59;;;-6.05;100.00
65800;BME280;52544;48.116;11.660;2023-12-04T09:19:04;95349.91;;;-5.95;100.00
65800;BME280;52544;48.116;11.660;2023-12-04T09:21:29;95347.03;;;-5.85;100.00
65800;BME280;52544;48.116;11.660;2023-12-04T09:23:55;95356.38;;;-5.81;100.00
65800;BME280;52544;48.116;11.660;2023-12-04T09:26:20;95357.91;;;-5.73;100.00
65800;BME280;52544;48.116;11.660;2023-12-04T09:28:45;95349.06;;;-5.63;100.00
65800;BME280;52544;48.116;11.660;2023-12-04T09:31:11;95350.69;;;-5.59;100.00
65800;BME280;52544;48.116;11.660;2023-12-04T09:33:37;95349.00;;;-5.60;100.00
65800;BME280;52544;48.116;11.660;2023-12-04T09:36:02;95356.59;;;-5.56;100.00
65800;BME280;52544;48.116;11.660;2023-12-04T09:38:28;95353.97;;;-5.54;100.00
65800;BME280;52544;48.116;11.660;2023-12-04T09:40:58;95360.41;;;-5.38;100.00
65800;BME280;52544;48.116;11.660;2023-12-04T09:43:25;95352.47;;;-5.30;100.00
65800;BME280;52544;48.116;11.660;2023-12-04T09:45:51;95351.38;;;-5.21;100.00
65800;BME280;52544;48.116;11.660;2023-12-04T09:48:17;95357.19;;;-5.15;100.00
65800;BME280;52544;48.116;11.660;2023-12-04T09:50:42;95359.91;;;-5.19;100.00
65800;BME280;52544;48.116;11.660;2023-12-04T09:53:10;95360.94;;;-5.25;100.00
65800;BME280;52544;48.116;11.660;2023-12-04T09:55:37;95360.94;;;-5.25;100.00
65800;BME280;52544;48.116;11.660;2023-12-04T09:58:03;95357.44;;;-5.24;100.00
65800;BME280;52544;48.116;11.660;2023-12-04T10:00:29;95341.91;;;-5.21;100.00
65800;BME280;52544;48.116;11.660;2023-12-04T10:02:56;95336.88;;;-5.25;100.00
65800;BME280;52544;48.116;11.660;2023-12-04T10:05:21;95327.03;;;-5.13;100.00
65800;BME280;52544;48.116;11.660;2023-12-04T10:07:47;95322.78;;;-5.14;100.00
65800;BME280;52544;48.116;11.660;2023-12-04T10:10:13;95318.69;;;-5.21;100.00
65800;BME280;52544;48.116;11.660;2023-12-04T10:12:39;95321.00;;;-5.12;100.00
65800;BME280;52544;48.116;11.660;2023-12-04T10:15:09;95312.53;;;-5.17;100.00
65800;BME280;52544;48.116;11.660;2023-12-04T10:17:42;95308.78;;;-5.05;100.00
65800;BME280;52544;48.116;11.660;2023-12-04T10:20:10;95304.47;;;-5.06;100.00
65800;BME280;52544;48.116;11.660;2023-12-04T10:22:59;95302.50;;;-4.98;100.00
65800;BME280;52544;48.116;11.660;2023-12-04T10:25:26;95299.56;;;-4.86;100.00
65800;BME280;52544;48.116;11.660;2023-12-04T10:27:54;95285.84;;;-4.58;100.00
65800;BME280;52544;48.116;11.660;2023-12-04T10:30:27;95284.66;;;-4.48;100.00
65800;BME280;52544;48.116;11.660;2023-12-04T10:33:04;95275.50;;;-4.32;100.00
65800;BME280;52544;48.116;11.660;2023-12-04T10:35:31;95275.50;;;-4.32;100.00
65800;BME280;52544;48.116;11.660;2023-12-04T10:37:57;95265.97;;;-4.30;100.00
65800;BME280;52544;48.116;11.660;2023-12-04T10:40:27;95253.25;;;-3.84;100.00
65800;BME280;52544;48.116;11.660;2023-12-04T10:43:14;95264.31;;;-3.81;100.00
65800;BME280;52544;48.116;11.660;2023-12-04T10:45:40;95258.41;;;-3.84;100.00
65800;BME280;52544;48.116;11.660;2023-12-04T10:48:07;95262.41;;;-3.75;100.00
65800;BME280;52544;48.116;11.660;2023-12-04T10:50:36;95264.66;;;-3.90;100.00
65800;BME280;52544;48.116;11.660;2023-12-04T10:53:06;95264.66;;;-3.90;100.00
65800;BME280;52544;48.116;11.660;2023-12-04T10:55:33;95259.16;;;-3.81;100.00
65800;BME280;52544;48.116;11.660;2023-12-04T10:58:04;95247.56;;;-3.94;100.00
65800;BME280;52544;48.116;11.660;2023-12-04T11:00:32;95247.00;;;-3.79;100.00
65800;BME280;52544;48.116;11.660;2023-12-04T11:03:08;95252.97;;;-3.77;100.00
65800;BME280;52544;48.116;11.660;2023-12-04T11:05:37;95241.91;;;-3.80;100.00
65800;BME280;52544;48.116;11.660;2023-12-04T11:08:05;95239.63;;;-3.64;100.00
65800;BME280;52544;48.116;11.660;2023-12-04T11:10:32;95240.63;;;-3.68;100.00
65800;BME280;52544;48.116;11.660;2023-12-04T11:13:21;95234.66;;;-3.70;100.00
65800;BME280;52544;48.116;11.660;2023-12-04T11:15:50;95232.78;;;-3.90;100.00
65800;BME280;52544;48.116;11.660;2023-12-04T11:18:21;95237.53;;;-4.03;100.00
65800;BME280;52544;48.116;11.660;2023-12-04T11:20:51;95220.72;;;-4.16;100.00
65800;BME280;52544;48.116;11.660;2023-12-04T11:23:18;95212.09;;;-4.15;100.00
65800;BME280;52544;48.116;11.660;2023-12-04T11:25:44;95216.19;;;-4.10;100.00
65800;BME280;52544;48.116;11.660;2023-12-04T11:28:11;95206.50;;;-4.03;100.00
65800;BME280;52544;48.116;11.660;2023-12-04T11:30:37;95195.78;;;-3.92;100.00
65800;BME280;52544;48.116;11.660;2023-12-04T11:33:04;95185.19;;;-3.85;100.00
65800;BME280;52544;48.116;11.660;2023-12-04T11:35:30;95186.19;;;-3.89;100.00
65800;BME280;52544;48.116;11.660;2023-12-04T11:37:55;95171.66;;;-3.93;100.00
65800;BME280;52544;48.116;11.660;2023-12-04T11:40:22;95173.25;;;-3.89;100.00
65800;BME280;52544;48.116;11.660;2023-12-04T11:42:48;95178.31;;;-3.86;100.00
65800;BME280;52544;48.116;11.660;2023-12-04T11:45:22;95170.16;;;-3.98;100.00
65800;BME280;52544;48.116;11.660;2023-12-04T11:47:51;95172.00;;;-4.02;100.00
65800;BME280;52544;48.116;11.660;2023-12-04T11:50:19;95164.84;;;-3.95;100.00
65800;BME280;52544;48.116;11.660;2023-12-04T11:52:45;95151.75;;;-3.91;100.00
65800;BME280;52544;48.116;11.660;2023-12-04T11:55:11;95149.41;;;-3.97;100.00
65800;BME280;52544;48.116;11.660;2023-12-04T11:57:40;95155.50;;;-3.98;100.00
65800;BME280;52544;48.116;11.660;2023-12-04T12:00:13;95151.66;;;-3.88;100.00
65800;BME280;52544;48.116;11.660;2023-12-04T12:03:00;95153.31;;;-3.85;100.00
65800;BME280;52544;48.116;11.660;2023-12-04T12:05:27;95155.22;;;-3.90;100.00
65800;BME280;52544;48.116;11.660;2023-12-04T12:07:53;95163.84;;;-3.91;100.00
65800;BME280;52544;48.116;11.660;2023-12-04T12:10:19;95164.66;;;-3.89;100.00
65800;BME280;52544;48.116;11.660;2023-12-04T12:12:45;95178.34;;;-3.87;100.00
65800;BME280;52544;48.116;11.660;2023-12-04T12:15:13;95174.66;;;-3.80;100.00
65800;BME280;52544;48.116;11.660;2023-12-04T12:17:40;95171.81;;;-3.72;100.00
65800;BME280;52544;48.116;11.660;2023-12-04T12:20:07;95176.25;;;-3.76;100.00
65800;BME280;52544;48.116;11.660;2023-12-04T12:22:34;95173.31;;;-3.67;100.00
65800;BME280;52544;48.116;11.660;2023-12-04T12:24:59;95168.78;;;-3.60;100.00
65800;BME280;52544;48.116;11.660;2023-12-04T12:27:25;95161.56;;;-3.52;100.00
65800;BME280;52544;48.116;11.660;2023-12-04T12:29:51;95164.84;;;-3.47;100.00
65800;BME280;52544;48.116;11.660;2023-12-04T12:32:16;95171.78;;;-3.49;100.00
65800;BME280;52544;48.116;11.660;2023-12-04T12:34:41;95172.03;;;-3.55;100.00